Maersk Vallvik — 9V8839 — position and weather

sailwx.info

Track history (hours):
 
Tides and Currents Weather Stations Pressure Air Temp Water Temp Dewpoint Dewpoint Depression Visibility Wind Speed Wind Dir Waves Ship Positions

Maersk Vallvik

Last reported at 2017-Mar-22 08:08 UTC. Time now 2017-Mar-23 08:09 UTC.
Position N 36°49' W 075°46'.

Length 180 m; draft 9.6 m.

Type: Ship (hazmat cat A). MMSI: 564837000.

Date/timePositionNaut miles runAvg speedWind from/ knotsBaromVisibWave heightAir tempDewpointWater temp
2017-Mar-22 08:08N 36°49' W 075°46'610.0
2017-Mar-22 07:33N 36°52' W 075°52'9 9.3
2017-Mar-22 06:33N 36°57' W 076°02'1413.8
2017-Mar-22 05:33N 36°59' W 076°19'7 6.8
2017-Mar-22 04:33N 36°52' W 076°21'0 0.0
2017-Mar-22 03:33N 36°52' W 076°21'0 0.0
2017-Mar-22 02:33N 36°52' W 076°21'0 0.0
2017-Mar-22 01:33N 36°52' W 076°21'0 0.0
2017-Mar-22 00:33N 36°52' W 076°21'0 0.0
2017-Mar-21 23:33N 36°52' W 076°21'0 0.0
2017-Mar-21 22:33N 36°52' W 076°21'0 0.0
2017-Mar-21 21:33N 36°52' W 076°21'3 3.0
2017-Mar-21 20:33N 36°55' W 076°20'1111.0
2017-Mar-21 19:33N 36°59' W 076°07'1110.9
2017-Mar-21 18:34N 36°55' W 075°54'7 5.4
2017-Mar-21 17:20N 36°51' W 075°48'8 6.9
2017-Mar-21 16:11N 36°45' W 075°41'1 0.1
2017-Mar-21 06:33N 36°45' W 075°40'10 9.9
2017-Mar-21 05:33N 36°51' W 075°50'10 9.7
2017-Mar-21 04:33N 36°57' W 075°59'1514.5
2017-Mar-21 03:32N 37°09' W 076°09'5016.6
2017-Mar-21 00:32N 37°59' W 076°12'4317.8
2017-Mar-20 22:08N 38°40' W 076°25'1118.1
2017-Mar-20 21:32N 38°51' W 076°24'1515.5
2017-Mar-20 20:32N 39°06' W 076°24'1010.4
2017-Mar-20 19:34N 39°14' W 076°33'2 1.5
2017-Mar-20 18:33N 39°15' W 076°33'0 0.0
2017-Mar-20 17:32N 39°15' W 076°33'0 0.0
2017-Mar-20 16:32N 39°15' W 076°33'0 0.0
2017-Mar-20 15:32N 39°15' W 076°33'0 0.0
2017-Mar-20 14:33N 39°15' W 076°33'0 0.0
2017-Mar-20 13:30N 39°15' W 076°33'0 0.0
2017-Mar-20 12:31N 39°15' W 076°33'0 0.0
2017-Mar-20 11:32N 39°15' W 076°33'0 0.0
2017-Mar-20 10:30N 39°15' W 076°33'0 0.0
2017-Mar-20 09:33N 39°15' W 076°33'0 0.0
2017-Mar-20 08:32N 39°15' W 076°33'0 0.0
2017-Mar-20 07:32N 39°15' W 076°33'0 0.0
2017-Mar-20 06:32N 39°15' W 076°33'0 0.0
2017-Mar-20 05:32N 39°15' W 076°33'0 0.0
2017-Mar-20 04:32N 39°15' W 076°33'0 0.0
2017-Mar-20 03:30N 39°15' W 076°33'0 0.0
2017-Mar-20 02:32N 39°15' W 076°33'0 0.0
2017-Mar-20 01:33N 39°15' W 076°33'0 0.0
2017-Mar-20 00:33N 39°15' W 076°33'0 0.0
2017-Mar-19 23:33N 39°15' W 076°33'0 0.0
2017-Mar-19 22:33N 39°15' W 076°33'0 0.0
2017-Mar-19 21:30N 39°15' W 076°33'0 0.0
2017-Mar-19 20:25N 39°15' W 076°33'0 0.0
2017-Mar-19 19:33N 39°15' W 076°33'0 0.0
2017-Mar-19 18:33N 39°15' W 076°33'0 0.0
2017-Mar-19 17:33N 39°15' W 076°33'0 0.0
2017-Mar-19 16:32N 39°15' W 076°33'0 0.2
2017-Mar-19 15:34N 39°15' W 076°33'6 6.1
2017-Mar-19 14:33N 39°11' W 076°27'1413.9
2017-Mar-19 13:34N 38°57' W 076°24'5016.6
2017-Mar-19 10:33N 38°08' W 076°14'6716.8
2017-Mar-19 06:34N 37°02' W 076°03'1110.9
2017-Mar-19 05:33N 36°54' W 075°53'167 8.6
2017-Mar-18 10:12N 39°15' W 073°59'1810.6
2017-Mar-18 08:32N 39°32' W 073°55'1010.6
2017-Mar-18 07:33N 39°42' W 073°53'1110.6
2017-Mar-18 06:31N 39°53' W 073°51'2010.1
2017-Mar-18 04:33N 40°13' W 073°50'10 9.6
2017-Mar-18 03:33N 40°23' W 073°49'9 8.9
2017-Mar-18 02:32N 40°30' W 073°56'1111.4
2017-Mar-18 01:33N 40°39' W 074°04'4 3.5
2017-Mar-18 00:33N 40°41' W 074°08'1 0.6
2017-Mar-17 23:31N 40°41' W 074°09'0 0.0
2017-Mar-17 22:31N 40°41' W 074°09'0 0.0
2017-Mar-17 21:31N 40°41' W 074°09'0 0.0
2017-Mar-17 20:31N 40°41' W 074°09'0 0.0
2017-Mar-17 19:31N 40°41' W 074°09'0 0.0
2017-Mar-17 18:31N 40°41' W 074°09'0 0.0
2017-Mar-17 17:31N 40°41' W 074°09'0 0.0
2017-Mar-17 16:31N 40°41' W 074°09'0 0.0
2017-Mar-17 15:31N 40°41' W 074°09'0 0.0
2017-Mar-17 14:31N 40°41' W 074°09'0 0.0
2017-Mar-17 13:31N 40°41' W 074°09'0 0.0
2017-Mar-17 12:31N 40°41' W 074°09'0 0.0
2017-Mar-17 11:31N 40°41' W 074°09'0 0.2
2017-Mar-17 10:33N 40°41' W 074°09'2 2.4
2017-Mar-17 09:33N 40°39' W 074°09'6 5.8
2017-Mar-17 08:33N 40°35' W 074°02'1010.3
2017-Mar-17 07:33N 40°28' W 073°52'8 7.8
2017-Mar-17 06:33N 40°22' W 073°46'4 4.1
2017-Mar-17 05:32N 40°18' W 073°46'  
Track history (hours):
 
Tides and Currents Weather Stations Pressure Air Temp Water Temp Dewpoint Dewpoint Depression Visibility Wind Speed Wind Dir Waves Ship Positions

Maersk Vallvik

Last reported at 2017-Mar-22 08:08 UTC. Time now 2017-Mar-23 08:09 UTC.
Position N 36°49' W 075°46'.

Length 180 m; draft 9.6 m.

Type: Ship (hazmat cat A). MMSI: 564837000.

Date/timePositionNaut miles runAvg speedWind from/ knotsBaromVisibWave heightAir tempDewpointWater temp
2017-Mar-22 08:08N 36°49' W 075°46'610.0
2017-Mar-22 07:33N 36°52' W 075°52'9 9.3
2017-Mar-22 06:33N 36°57' W 076°02'1413.8
2017-Mar-22 05:33N 36°59' W 076°19'7 6.8
2017-Mar-22 04:33N 36°52' W 076°21'0 0.0
2017-Mar-22 03:33N 36°52' W 076°21'0 0.0
2017-Mar-22 02:33N 36°52' W 076°21'0 0.0
2017-Mar-22 01:33N 36°52' W 076°21'0 0.0
2017-Mar-22 00:33N 36°52' W 076°21'0 0.0
2017-Mar-21 23:33N 36°52' W 076°21'0 0.0
2017-Mar-21 22:33N 36°52' W 076°21'0 0.0
2017-Mar-21 21:33N 36°52' W 076°21'3 3.0
2017-Mar-21 20:33N 36°55' W 076°20'1111.0
2017-Mar-21 19:33N 36°59' W 076°07'1110.9
2017-Mar-21 18:34N 36°55' W 075°54'7 5.4
2017-Mar-21 17:20N 36°51' W 075°48'8 6.9
2017-Mar-21 16:11N 36°45' W 075°41'1 0.1
2017-Mar-21 06:33N 36°45' W 075°40'10 9.9
2017-Mar-21 05:33N 36°51' W 075°50'10 9.7
2017-Mar-21 04:33N 36°57' W 075°59'1514.5
2017-Mar-21 03:32N 37°09' W 076°09'5016.6
2017-Mar-21 00:32N 37°59' W 076°12'4317.8
2017-Mar-20 22:08N 38°40' W 076°25'1118.1
2017-Mar-20 21:32N 38°51' W 076°24'1515.5
2017-Mar-20 20:32N 39°06' W 076°24'1010.4
2017-Mar-20 19:34N 39°14' W 076°33'2 1.5
2017-Mar-20 18:33N 39°15' W 076°33'0 0.0
2017-Mar-20 17:32N 39°15' W 076°33'0 0.0
2017-Mar-20 16:32N 39°15' W 076°33'0 0.0
2017-Mar-20 15:32N 39°15' W 076°33'0 0.0
2017-Mar-20 14:33N 39°15' W 076°33'0 0.0
2017-Mar-20 13:30N 39°15' W 076°33'0 0.0
2017-Mar-20 12:31N 39°15' W 076°33'0 0.0
2017-Mar-20 11:32N 39°15' W 076°33'0 0.0
2017-Mar-20 10:30N 39°15' W 076°33'0 0.0
2017-Mar-20 09:33N 39°15' W 076°33'0 0.0
2017-Mar-20 08:32N 39°15' W 076°33'0 0.0
2017-Mar-20 07:32N 39°15' W 076°33'0 0.0
2017-Mar-20 06:32N 39°15' W 076°33'0 0.0
2017-Mar-20 05:32N 39°15' W 076°33'0 0.0
2017-Mar-20 04:32N 39°15' W 076°33'0 0.0
2017-Mar-20 03:30N 39°15' W 076°33'0 0.0
2017-Mar-20 02:32N 39°15' W 076°33'0 0.0
2017-Mar-20 01:33N 39°15' W 076°33'0 0.0
2017-Mar-20 00:33N 39°15' W 076°33'0 0.0
2017-Mar-19 23:33N 39°15' W 076°33'0 0.0
2017-Mar-19 22:33N 39°15' W 076°33'0 0.0
2017-Mar-19 21:30N 39°15' W 076°33'0 0.0
2017-Mar-19 20:25N 39°15' W 076°33'0 0.0
2017-Mar-19 19:33N 39°15' W 076°33'0 0.0
2017-Mar-19 18:33N 39°15' W 076°33'0 0.0
2017-Mar-19 17:33N 39°15' W 076°33'0 0.0
2017-Mar-19 16:32N 39°15' W 076°33'0 0.2
2017-Mar-19 15:34N 39°15' W 076°33'6 6.1
2017-Mar-19 14:33N 39°11' W 076°27'1413.9
2017-Mar-19 13:34N 38°57' W 076°24'5016.6
2017-Mar-19 10:33N 38°08' W 076°14'6716.8
2017-Mar-19 06:34N 37°02' W 076°03'1110.9
2017-Mar-19 05:33N 36°54' W 075°53'167 8.6
2017-Mar-18 10:12N 39°15' W 073°59'1810.6
2017-Mar-18 08:32N 39°32' W 073°55'1010.6
2017-Mar-18 07:33N 39°42' W 073°53'1110.6
2017-Mar-18 06:31N 39°53' W 073°51'2010.1
2017-Mar-18 04:33N 40°13' W 073°50'10 9.6
2017-Mar-18 03:33N 40°23' W 073°49'9 8.9
2017-Mar-18 02:32N 40°30' W 073°56'1111.4
2017-Mar-18 01:33N 40°39' W 074°04'4 3.5
2017-Mar-18 00:33N 40°41' W 074°08'1 0.6
2017-Mar-17 23:31N 40°41' W 074°09'0 0.0
2017-Mar-17 22:31N 40°41' W 074°09'0 0.0
2017-Mar-17 21:31N 40°41' W 074°09'0 0.0
2017-Mar-17 20:31N 40°41' W 074°09'0 0.0
2017-Mar-17 19:31N 40°41' W 074°09'0 0.0
2017-Mar-17 18:31N 40°41' W 074°09'0 0.0
2017-Mar-17 17:31N 40°41' W 074°09'0 0.0
2017-Mar-17 16:31N 40°41' W 074°09'0 0.0
2017-Mar-17 15:31N 40°41' W 074°09'0 0.0
2017-Mar-17 14:31N 40°41' W 074°09'0 0.0
2017-Mar-17 13:31N 40°41' W 074°09'0 0.0
2017-Mar-17 12:31N 40°41' W 074°09'0 0.0
2017-Mar-17 11:31N 40°41' W 074°09'0 0.2
2017-Mar-17 10:33N 40°41' W 074°09'2 2.4
2017-Mar-17 09:33N 40°39' W 074°09'6 5.8
2017-Mar-17 08:33N 40°35' W 074°02'1010.3
2017-Mar-17 07:33N 40°28' W 073°52'8 7.8
2017-Mar-17 06:33N 40°22' W 073°46'4 4.1
2017-Mar-17 05:32N 40°18' W 073°46'  

Dump ship's entire track history